To NAV CANADA Home Page Login to a new session Search on AWWS site Disclaimer Vers la page française équivalente Tips FAQ What's new on the site To the Forecasts and Observations / NOTAM section To "File a Flight Plan" website Publications and other links Update of the User's profile FIC Telephone Numbers My Weather Data Folder Route Weather Data Regional Weather Data Local Weather Data To the Forecasts and Observations / NOTAM section
Request Generated 08/15/2018 at 22:28:49 UTC . Weather information available at that time is displayed.


Save this request

METAR/TAF

KAMLOOPS/BC    

METAR CYKA 152200Z 12005KT 3SM FU SCT180 27/12 A2986 RMK FU3AC1 SLP112 DENSITY ALT 2800FT=
METAR CYKA 152100Z 13005KT 3SM FU SKC 25/13 A2989 RMK FU3 SLP121 DENSITY ALT 2600FT=
METAR CYKA 152000Z 11006KT 3SM FU SKC 23/13 A2992 RMK FU2 SLP131 DENSITY ALT 2300FT=

TAF CYKA 151838Z 1519/1607 12005KT 3SM FU SKC TEMPO 1519/1607 6SM FU
RMK NXT FCST BY 160100Z=

CLINTON BC/AUTO OBS    

CWCL - METAR not available

CWCL - No TAF is issued for this station

LYTTON BC/OBS    (show WxCam)

METAR CWLY 152200Z AUTO 35003KT 300V030 3SM HZ CLR 33/11 A2979 RMK SLP087 DENSITY ALT 3000FT=
METAR CWLY 152100Z AUTO 00000KT 3SM HZ CLR 30/11 A2983 RMK SLP099 DENSITY ALT 2600FT=
METAR CWLY 152000Z AUTO VRB02KT 3SM HZ CLR 26/11 A2986 RMK SLP109 DENSITY ALT 2200FT=

CWLY - No TAF is issued for this station

CLINTON/BLEIBLER RANCH/BC    (show WxCam)

METAR CYIN 152200Z AUTO 05006KT 360V110 3SM HZ OVC031 24/09 A2999 RMK SLP149 DENSITY ALT 5400FT=
METAR CYIN 152100Z AUTO VRB02KT 4SM HZ OVC033 23/09 A3000 RMK SLP152 DENSITY ALT 5300FT=
METAR CYIN 152000Z AUTO 00000KT 3SM HZ OVC037 21/10 A3001 RMK SLP156 DENSITY ALT 5100FT=

CYIN - No TAF is issued for this station



Your time UTC time
Weather data provided by Environment Canada and NAV CANADA